sensor_id;sensor_type;location;lat;lon;timestamp;P1;durP1;ratioP1;P2;durP2;ratioP2
37715;SDS011;23562;50.540;12.504;2023-03-01T00:02:04;32.00;;;15.77;;
37715;SDS011;23562;50.540;12.504;2023-03-01T00:04:29;30.35;;;14.45;;
37715;SDS011;23562;50.540;12.504;2023-03-01T00:06:55;30.85;;;14.43;;
37715;SDS011;23562;50.540;12.504;2023-03-01T00:09:20;31.20;;;14.80;;
37715;SDS011;23562;50.540;12.504;2023-03-01T00:11:45;32.42;;;14.80;;
37715;SDS011;23562;50.540;12.504;2023-03-01T00:14:11;30.88;;;14.10;;
37715;SDS011;23562;50.540;12.504;2023-03-01T00:16:37;28.02;;;14.05;;
37715;SDS011;23562;50.540;12.504;2023-03-01T00:19:10;30.63;;;14.13;;
37715;SDS011;23562;50.540;12.504;2023-03-01T00:21:36;30.75;;;14.48;;
37715;SDS011;23562;50.540;12.504;2023-03-01T00:24:03;30.27;;;14.38;;
37715;SDS011;23562;50.540;12.504;2023-03-01T00:26:29;30.65;;;14.05;;
37715;SDS011;23562;50.540;12.504;2023-03-01T00:28:54;27.90;;;14.15;;
37715;SDS011;23562;50.540;12.504;2023-03-01T00:31:23;31.65;;;14.75;;
37715;SDS011;23562;50.540;12.504;2023-03-01T00:33:51;28.50;;;14.60;;
37715;SDS011;23562;50.540;12.504;2023-03-01T00:36:17;32.67;;;14.02;;
37715;SDS011;23562;50.540;12.504;2023-03-01T00:38:45;36.40;;;16.77;;
37715;SDS011;23562;50.540;12.504;2023-03-01T00:41:13;31.38;;;15.00;;
37715;SDS011;23562;50.540;12.504;2023-03-01T00:43:40;33.10;;;15.77;;
37715;SDS011;23562;50.540;12.504;2023-03-01T00:46:07;33.28;;;15.65;;
37715;SDS011;23562;50.540;12.504;2023-03-01T00:48:35;30.88;;;16.25;;
37715;SDS011;23562;50.540;12.504;2023-03-01T00:51:06;31.00;;;14.90;;
37715;SDS011;23562;50.540;12.504;2023-03-01T00:53:32;26.03;;;11.63;;
37715;SDS011;23562;50.540;12.504;2023-03-01T00:56:00;32.85;;;16.17;;
37715;SDS011;23562;50.540;12.504;2023-03-01T00:58:29;31.48;;;15.82;;
37715;SDS011;23562;50.540;12.504;2023-03-01T01:00:59;34.75;;;15.63;;
37715;SDS011;23562;50.540;12.504;2023-03-01T01:03:24;32.05;;;15.30;;
37715;SDS011;23562;50.540;12.504;2023-03-01T01:05:53;33.85;;;15.40;;
37715;SDS011;23562;50.540;12.504;2023-03-01T01:08:21;32.53;;;15.77;;
37715;SDS011;23562;50.540;12.504;2023-03-01T01:10:49;32.75;;;15.95;;
37715;SDS011;23562;50.540;12.504;2023-03-01T01:13:15;32.78;;;15.25;;
37715;SDS011;23562;50.540;12.504;2023-03-01T01:15:42;34.60;;;14.27;;
37715;SDS011;23562;50.540;12.504;2023-03-01T01:18:07;32.50;;;15.27;;
37715;SDS011;23562;50.540;12.504;2023-03-01T01:20:34;30.88;;;14.70;;
37715;SDS011;23562;50.540;12.504;2023-03-01T01:32:10;29.73;;;14.60;;
37715;SDS011;23562;50.540;12.504;2023-03-01T01:34:43;29.30;;;14.00;;
37715;SDS011;23562;50.540;12.504;2023-03-01T01:37:11;32.85;;;14.32;;
37715;SDS011;23562;50.540;12.504;2023-03-01T01:39:44;29.42;;;14.57;;
37715;SDS011;23562;50.540;12.504;2023-03-01T01:48:14;31.20;;;14.30;;
37715;SDS011;23562;50.540;12.504;2023-03-01T01:50:41;33.65;;;14.32;;
37715;SDS011;23562;50.540;12.504;2023-03-01T01:53:08;29.80;;;14.30;;
37715;SDS011;23562;50.540;12.504;2023-03-01T01:55:36;27.90;;;13.68;;
37715;SDS011;23562;50.540;12.504;2023-03-01T02:00:52;27.45;;;14.27;;
37715;SDS011;23562;50.540;12.504;2023-03-01T02:03:30;28.27;;;14.27;;
37715;SDS011;23562;50.540;12.504;2023-03-01T02:29:52;28.95;;;14.15;;
37715;SDS011;23562;50.540;12.504;2023-03-01T02:32:17;29.63;;;13.57;;
37715;SDS011;23562;50.540;12.504;2023-03-01T02:34:49;29.17;;;14.23;;
37715;SDS011;23562;50.540;12.504;2023-03-01T02:37:17;31.92;;;13.95;;
37715;SDS011;23562;50.540;12.504;2023-03-01T02:39:59;32.55;;;14.18;;
37715;SDS011;23562;50.540;12.504;2023-03-01T02:42:32;31.15;;;14.63;;
37715;SDS011;23562;50.540;12.504;2023-03-01T02:45:00;30.00;;;14.40;;
37715;SDS011;23562;50.540;12.504;2023-03-01T02:59:52;33.60;;;15.35;;
37715;SDS011;23562;50.540;12.504;2023-03-01T03:02:31;35.75;;;14.50;;
37715;SDS011;23562;50.540;12.504;2023-03-01T03:07:44;30.23;;;14.35;;
37715;SDS011;23562;50.540;12.504;2023-03-01T03:10:20;27.98;;;14.27;;
37715;SDS011;23562;50.540;12.504;2023-03-01T03:12:56;30.63;;;13.98;;
37715;SDS011;23562;50.540;12.504;2023-03-01T03:27:48;29.88;;;12.32;;
37715;SDS011;23562;50.540;12.504;2023-03-01T03:35:50;30.80;;;13.65;;
37715;SDS011;23562;50.540;12.504;2023-03-01T03:38:26;29.60;;;14.07;;
37715;SDS011;23562;50.540;12.504;2023-03-01T03:50:49;36.55;;;13.98;;
37715;SDS011;23562;50.540;12.504;2023-03-01T03:53:23;33.95;;;14.45;;
37715;SDS011;23562;50.540;12.504;2023-03-01T04:17:36;33.92;;;14.43;;
37715;SDS011;23562;50.540;12.504;2023-03-01T04:23:23;33.05;;;14.77;;
37715;SDS011;23562;50.540;12.504;2023-03-01T04:25:54;31.83;;;14.13;;
37715;SDS011;23562;50.540;12.504;2023-03-01T04:31:18;29.35;;;14.80;;
37715;SDS011;23562;50.540;12.504;2023-03-01T04:33:49;31.23;;;14.27;;
37715;SDS011;23562;50.540;12.504;2023-03-01T04:36:23;31.60;;;14.90;;
37715;SDS011;23562;50.540;12.504;2023-03-01T04:38:52;34.78;;;15.73;;
37715;SDS011;23562;50.540;12.504;2023-03-01T04:41:18;27.23;;;13.68;;
37715;SDS011;23562;50.540;12.504;2023-03-01T04:43:52;30.20;;;14.57;;
37715;SDS011;23562;50.540;12.504;2023-03-01T04:46:18;37.25;;;15.73;;
37715;SDS011;23562;50.540;12.504;2023-03-01T04:48:44;34.88;;;15.82;;
37715;SDS011;23562;50.540;12.504;2023-03-01T04:51:10;31.85;;;15.85;;
37715;SDS011;23562;50.540;12.504;2023-03-01T04:53:38;35.92;;;15.77;;
37715;SDS011;23562;50.540;12.504;2023-03-01T04:56:04;37.38;;;16.25;;
37715;SDS011;23562;50.540;12.504;2023-03-01T04:58:29;37.55;;;15.95;;
37715;SDS011;23562;50.540;12.504;2023-03-01T05:00:55;35.28;;;15.63;;
37715;SDS011;23562;50.540;12.504;2023-03-01T05:03:20;32.83;;;15.70;;
37715;SDS011;23562;50.540;12.504;2023-03-01T05:05:46;34.15;;;14.88;;
37715;SDS011;23562;50.540;12.504;2023-03-01T05:08:12;33.45;;;15.88;;
37715;SDS011;23562;50.540;12.504;2023-03-01T05:10:44;41.28;;;17.30;;
37715;SDS011;23562;50.540;12.504;2023-03-01T05:13:12;40.85;;;16.92;;
37715;SDS011;23562;50.540;12.504;2023-03-01T05:15:46;36.38;;;15.85;;
37715;SDS011;23562;50.540;12.504;2023-03-01T05:18:11;33.42;;;16.08;;
37715;SDS011;23562;50.540;12.504;2023-03-01T05:20:36;30.50;;;15.35;;
37715;SDS011;23562;50.540;12.504;2023-03-01T05:23:01;34.53;;;14.90;;
37715;SDS011;23562;50.540;12.504;2023-03-01T05:25:30;35.28;;;14.32;;
37715;SDS011;23562;50.540;12.504;2023-03-01T05:27:57;38.47;;;17.60;;
37715;SDS011;23562;50.540;12.504;2023-03-01T05:30:22;37.20;;;16.45;;
37715;SDS011;23562;50.540;12.504;2023-03-01T05:32:49;31.52;;;15.13;;
37715;SDS011;23562;50.540;12.504;2023-03-01T05:35:15;33.05;;;14.65;;
37715;SDS011;23562;50.540;12.504;2023-03-01T05:37:45;33.95;;;15.80;;
37715;SDS011;23562;50.540;12.504;2023-03-01T05:40:11;32.00;;;14.90;;
37715;SDS011;23562;50.540;12.504;2023-03-01T05:42:46;33.88;;;14.75;;
37715;SDS011;23562;50.540;12.504;2023-03-01T05:45:12;32.58;;;15.10;;
37715;SDS011;23562;50.540;12.504;2023-03-01T05:47:38;31.75;;;14.65;;
37715;SDS011;23562;50.540;12.504;2023-03-01T05:50:03;30.23;;;14.55;;
37715;SDS011;23562;50.540;12.504;2023-03-01T05:52:28;32.10;;;15.63;;
37715;SDS011;23562;50.540;12.504;2023-03-01T05:54:53;37.42;;;16.15;;
37715;SDS011;23562;50.540;12.504;2023-03-01T05:57:18;32.25;;;15.05;;
37715;SDS011;23562;50.540;12.504;2023-03-01T05:59:45;36.05;;;16.33;;
37715;SDS011;23562;50.540;12.504;2023-03-01T06:02:10;37.83;;;17.13;;
37715;SDS011;23562;50.540;12.504;2023-03-01T06:04:35;37.50;;;17.67;;
37715;SDS011;23562;50.540;12.504;2023-03-01T06:07:00;41.92;;;16.48;;
37715;SDS011;23562;50.540;12.504;2023-03-01T06:09:25;39.93;;;17.70;;
37715;SDS011;23562;50.540;12.504;2023-03-01T06:11:50;37.38;;;17.83;;
37715;SDS011;23562;50.540;12.504;2023-03-01T06:14:16;41.20;;;18.83;;
37715;SDS011;23562;50.540;12.504;2023-03-01T06:16:41;41.75;;;17.83;;
37715;SDS011;23562;50.540;12.504;2023-03-01T06:19:06;37.30;;;18.47;;
37715;SDS011;23562;50.540;12.504;2023-03-01T06:21:31;41.08;;;20.75;;
37715;SDS011;23562;50.540;12.504;2023-03-01T06:23:57;35.65;;;18.63;;
37715;SDS011;23562;50.540;12.504;2023-03-01T06:26:22;34.35;;;15.98;;
37715;SDS011;23562;50.540;12.504;2023-03-01T06:28:47;36.00;;;16.25;;
37715;SDS011;23562;50.540;12.504;2023-03-01T06:31:12;35.43;;;17.07;;
37715;SDS011;23562;50.540;12.504;2023-03-01T06:33:37;40.00;;;16.63;;
37715;SDS011;23562;50.540;12.504;2023-03-01T06:36:03;43.50;;;19.40;;
37715;SDS011;23562;50.540;12.504;2023-03-01T06:38:28;39.78;;;17.77;;
37715;SDS011;23562;50.540;12.504;2023-03-01T06:40:53;44.55;;;18.15;;
37715;SDS011;23562;50.540;12.504;2023-03-01T06:43:19;42.88;;;17.95;;
37715;SDS011;23562;50.540;12.504;2023-03-01T06:45:44;36.67;;;16.87;;
37715;SDS011;23562;50.540;12.504;2023-03-01T06:48:10;41.50;;;17.98;;
37715;SDS011;23562;50.540;12.504;2023-03-01T06:50:35;57.65;;;23.10;;
37715;SDS011;23562;50.540;12.504;2023-03-01T06:53:00;56.03;;;21.13;;
37715;SDS011;23562;50.540;12.504;2023-03-01T06:55:26;39.75;;;17.58;;
37715;SDS011;23562;50.540;12.504;2023-03-01T06:57:57;36.63;;;17.33;;
37715;SDS011;23562;50.540;12.504;2023-03-01T07:00:23;36.88;;;18.17;;
37715;SDS011;23562;50.540;12.504;2023-03-01T07:02:48;41.70;;;19.52;;
37715;SDS011;23562;50.540;12.504;2023-03-01T07:05:14;38.63;;;19.87;;
37715;SDS011;23562;50.540;12.504;2023-03-01T07:07:39;37.30;;;19.42;;
37715;SDS011;23562;50.540;12.504;2023-03-01T07:10:04;42.30;;;18.48;;
37715;SDS011;23562;50.540;12.504;2023-03-01T07:12:29;43.00;;;19.73;;
37715;SDS011;23562;50.540;12.504;2023-03-01T07:14:55;42.80;;;18.42;;
37715;SDS011;23562;50.540;12.504;2023-03-01T07:17:20;33.95;;;17.25;;
37715;SDS011;23562;50.540;12.504;2023-03-01T07:19:45;41.57;;;18.87;;
37715;SDS011;23562;50.540;12.504;2023-03-01T07:22:10;37.22;;;18.70;;
37715;SDS011;23562;50.540;12.504;2023-03-01T07:24:35;39.40;;;19.20;;
37715;SDS011;23562;50.540;12.504;2023-03-01T07:27:00;51.25;;;25.38;;
37715;SDS011;23562;50.540;12.504;2023-03-01T07:29:25;53.08;;;26.17;;
37715;SDS011;23562;50.540;12.504;2023-03-01T07:31:51;50.65;;;26.83;;
37715;SDS011;23562;50.540;12.504;2023-03-01T07:34:16;51.03;;;26.23;;
37715;SDS011;23562;50.540;12.504;2023-03-01T07:36:41;49.47;;;22.55;;
37715;SDS011;23562;50.540;12.504;2023-03-01T07:39:08;43.20;;;20.90;;
37715;SDS011;23562;50.540;12.504;2023-03-01T07:41:33;44.70;;;20.80;;
37715;SDS011;23562;50.540;12.504;2023-03-01T07:43:58;47.20;;;21.45;;
37715;SDS011;23562;50.540;12.504;2023-03-01T07:46:23;45.53;;;21.05;;
37715;SDS011;23562;50.540;12.504;2023-03-01T07:48:48;44.65;;;21.55;;
37715;SDS011;23562;50.540;12.504;2023-03-01T07:51:14;44.67;;;19.38;;
37715;SDS011;23562;50.540;12.504;2023-03-01T07:53:45;39.13;;;18.97;;
37715;SDS011;23562;50.540;12.504;2023-03-01T07:56:13;42.22;;;19.77;;
37715;SDS011;23562;50.540;12.504;2023-03-01T07:58:40;41.85;;;19.58;;
37715;SDS011;23562;50.540;12.504;2023-03-01T08:01:06;46.22;;;19.70;;
37715;SDS011;23562;50.540;12.504;2023-03-01T08:03:32;41.25;;;20.20;;
37715;SDS011;23562;50.540;12.504;2023-03-01T08:05:59;46.15;;;20.70;;
37715;SDS011;23562;50.540;12.504;2023-03-01T08:08:24;36.10;;;18.88;;
37715;SDS011;23562;50.540;12.504;2023-03-01T08:10:49;40.35;;;18.67;;
37715;SDS011;23562;50.540;12.504;2023-03-01T08:13:14;40.50;;;19.75;;
37715;SDS011;23562;50.540;12.504;2023-03-01T08:15:39;40.08;;;18.75;;
37715;SDS011;23562;50.540;12.504;2023-03-01T08:18:04;36.95;;;18.75;;
37715;SDS011;23562;50.540;12.504;2023-03-01T08:20:31;40.97;;;19.15;;
37715;SDS011;23562;50.540;12.504;2023-03-01T08:22:57;35.80;;;18.05;;
37715;SDS011;23562;50.540;12.504;2023-03-01T08:25:22;35.55;;;18.02;;
37715;SDS011;23562;50.540;12.504;2023-03-01T08:27:47;43.40;;;18.60;;
37715;SDS011;23562;50.540;12.504;2023-03-01T08:30:13;35.23;;;17.90;;
37715;SDS011;23562;50.540;12.504;2023-03-01T08:32:38;39.47;;;18.50;;
37715;SDS011;23562;50.540;12.504;2023-03-01T08:35:03;35.53;;;17.73;;
37715;SDS011;23562;50.540;12.504;2023-03-01T08:37:28;38.20;;;18.10;;
37715;SDS011;23562;50.540;12.504;2023-03-01T08:39:55;37.90;;;16.52;;
37715;SDS011;23562;50.540;12.504;2023-03-01T08:42:21;34.10;;;16.83;;
37715;SDS011;23562;50.540;12.504;2023-03-01T08:44:46;35.60;;;17.58;;
37715;SDS011;23562;50.540;12.504;2023-03-01T08:47:11;30.70;;;15.77;;
37715;SDS011;23562;50.540;12.504;2023-03-01T08:49:36;37.73;;;18.67;;
37715;SDS011;23562;50.540;12.504;2023-03-01T08:52:01;34.10;;;17.20;;
37715;SDS011;23562;50.540;12.504;2023-03-01T08:54:27;32.13;;;16.02;;
37715;SDS011;23562;50.540;12.504;2023-03-01T08:56:52;31.97;;;15.90;;
37715;SDS011;23562;50.540;12.504;2023-03-01T08:59:17;26.33;;;14.17;;
37715;SDS011;23562;50.540;12.504;2023-03-01T09:01:42;25.80;;;14.50;;
37715;SDS011;23562;50.540;12.504;2023-03-01T09:04:11;29.70;;;16.05;;
37715;SDS011;23562;50.540;12.504;2023-03-01T09:06:36;33.30;;;18.85;;
37715;SDS011;23562;50.540;12.504;2023-03-01T09:09:02;37.90;;;20.38;;
37715;SDS011;23562;50.540;12.504;2023-03-01T09:11:28;36.20;;;20.08;;
37715;SDS011;23562;50.540;12.504;2023-03-01T09:13:54;27.73;;;17.08;;
37715;SDS011;23562;50.540;12.504;2023-03-01T09:16:20;25.15;;;14.98;;
37715;SDS011;23562;50.540;12.504;2023-03-01T09:21:37;29.40;;;14.57;;
37715;SDS011;23562;50.540;12.504;2023-03-01T09:24:02;35.37;;;16.17;;
37715;SDS011;23562;50.540;12.504;2023-03-01T09:26:28;32.15;;;15.75;;
37715;SDS011;23562;50.540;12.504;2023-03-01T09:28:54;37.05;;;17.55;;
37715;SDS011;23562;50.540;12.504;2023-03-01T09:31:20;47.83;;;21.60;;
37715;SDS011;23562;50.540;12.504;2023-03-01T09:33:46;84.78;;;35.70;;
37715;SDS011;23562;50.540;12.504;2023-03-01T09:36:13;66.78;;;30.95;;
37715;SDS011;23562;50.540;12.504;2023-03-01T09:38:38;68.93;;;31.02;;
37715;SDS011;23562;50.540;12.504;2023-03-01T09:41:09;70.47;;;29.60;;
37715;SDS011;23562;50.540;12.504;2023-03-01T09:43:43;88.18;;;34.33;;
37715;SDS011;23562;50.540;12.504;2023-03-01T09:46:11;68.57;;;29.85;;
37715;SDS011;23562;50.540;12.504;2023-03-01T09:48:39;57.50;;;26.13;;
37715;SDS011;23562;50.540;12.504;2023-03-01T09:51:07;57.33;;;27.10;;
37715;SDS011;23562;50.540;12.504;2023-03-01T09:53:33;64.53;;;28.40;;
37715;SDS011;23562;50.540;12.504;2023-03-01T10:00:53;60.90;;;27.23;;
37715;SDS011;23562;50.540;12.504;2023-03-01T10:03:26;54.05;;;25.48;;
37715;SDS011;23562;50.540;12.504;2023-03-01T10:05:55;47.42;;;23.60;;
37715;SDS011;23562;50.540;12.504;2023-03-01T10:11:01;48.53;;;24.00;;
37715;SDS011;23562;50.540;12.504;2023-03-01T10:13:29;56.45;;;27.40;;
37715;SDS011;23562;50.540;12.504;2023-03-01T10:16:01;80.38;;;36.25;;
37715;SDS011;23562;50.540;12.504;2023-03-01T10:18:29;89.40;;;39.92;;
37715;SDS011;23562;50.540;12.504;2023-03-01T10:20:57;82.25;;;36.72;;
37715;SDS011;23562;50.540;12.504;2023-03-01T10:23:23;95.68;;;41.22;;
37715;SDS011;23562;50.540;12.504;2023-03-01T10:31:12;83.80;;;33.10;;
37715;SDS011;23562;50.540;12.504;2023-03-01T10:33:38;55.88;;;26.27;;
37715;SDS011;23562;50.540;12.504;2023-03-01T10:36:06;40.88;;;22.08;;
37715;SDS011;23562;50.540;12.504;2023-03-01T10:38:46;42.65;;;21.92;;
37715;SDS011;23562;50.540;12.504;2023-03-01T10:41:11;47.70;;;22.57;;
37715;SDS011;23562;50.540;12.504;2023-03-01T10:43:44;42.37;;;22.97;;
37715;SDS011;23562;50.540;12.504;2023-03-01T10:46:23;39.97;;;22.52;;
37715;SDS011;23562;50.540;12.504;2023-03-01T10:49:04;43.10;;;22.15;;
37715;SDS011;23562;50.540;12.504;2023-03-01T10:51:30;44.63;;;23.98;;
37715;SDS011;23562;50.540;12.504;2023-03-01T10:53:55;49.60;;;23.37;;
37715;SDS011;23562;50.540;12.504;2023-03-01T10:56:20;44.23;;;22.90;;
37715;SDS011;23562;50.540;12.504;2023-03-01T10:58:59;47.05;;;24.38;;
37715;SDS011;23562;50.540;12.504;2023-03-01T11:01:26;47.05;;;24.52;;
37715;SDS011;23562;50.540;12.504;2023-03-01T11:06:35;44.78;;;24.30;;
37715;SDS011;23562;50.540;12.504;2023-03-01T11:12:02;51.58;;;26.65;;
37715;SDS011;23562;50.540;12.504;2023-03-01T11:14:38;46.40;;;24.92;;
37715;SDS011;23562;50.540;12.504;2023-03-01T11:17:29;48.65;;;25.20;;
37715;SDS011;23562;50.540;12.504;2023-03-01T11:23:18;46.65;;;25.70;;
37715;SDS011;23562;50.540;12.504;2023-03-01T11:25:43;46.58;;;24.85;;
37715;SDS011;23562;50.540;12.504;2023-03-01T11:28:12;50.33;;;26.35;;
37715;SDS011;23562;50.540;12.504;2023-03-01T11:30:39;46.88;;;24.45;;
37715;SDS011;23562;50.540;12.504;2023-03-01T11:33:20;46.95;;;25.88;;
37715;SDS011;23562;50.540;12.504;2023-03-01T11:35:50;48.75;;;25.00;;
37715;SDS011;23562;50.540;12.504;2023-03-01T11:47:07;54.90;;;27.98;;
37715;SDS011;23562;50.540;12.504;2023-03-01T11:54:56;47.58;;;26.02;;
37715;SDS011;23562;50.540;12.504;2023-03-01T11:57:37;69.15;;;30.15;;
37715;SDS011;23562;50.540;12.504;2023-03-01T12:00:13;58.40;;;28.17;;
37715;SDS011;23562;50.540;12.504;2023-03-01T12:05:38;50.47;;;27.15;;
37715;SDS011;23562;50.540;12.504;2023-03-01T12:08:15;61.15;;;28.65;;
37715;SDS011;23562;50.540;12.504;2023-03-01T12:13:37;46.22;;;25.67;;
37715;SDS011;23562;50.540;12.504;2023-03-01T12:16:07;51.72;;;26.95;;
37715;SDS011;23562;50.540;12.504;2023-03-01T12:21:27;44.72;;;25.42;;
37715;SDS011;23562;50.540;12.504;2023-03-01T12:26:35;52.15;;;27.15;;
37715;SDS011;23562;50.540;12.504;2023-03-01T12:34:02;44.38;;;24.02;;
37715;SDS011;23562;50.540;12.504;2023-03-01T12:37:18;42.55;;;25.58;;
37715;SDS011;23562;50.540;12.504;2023-03-01T12:39:32;52.13;;;25.42;;
37715;SDS011;23562;50.540;12.504;2023-03-01T12:42:18;46.72;;;26.98;;
37715;SDS011;23562;50.540;12.504;2023-03-01T12:47:49;45.30;;;24.58;;
37715;SDS011;23562;50.540;12.504;2023-03-01T12:50:20;54.63;;;26.98;;
37715;SDS011;23562;50.540;12.504;2023-03-01T12:52:53;50.83;;;27.20;;
37715;SDS011;23562;50.540;12.504;2023-03-01T12:55:28;46.03;;;23.88;;
37715;SDS011;23562;50.540;12.504;2023-03-01T13:00:39;47.30;;;26.00;;
37715;SDS011;23562;50.540;12.504;2023-03-01T13:03:12;48.50;;;25.65;;
37715;SDS011;23562;50.540;12.504;2023-03-01T13:05:45;44.63;;;24.75;;
37715;SDS011;23562;50.540;12.504;2023-03-01T13:08:16;44.80;;;25.05;;
37715;SDS011;23562;50.540;12.504;2023-03-01T13:10:47;46.88;;;25.05;;
37715;SDS011;23562;50.540;12.504;2023-03-01T13:13:18;45.55;;;24.70;;
37715;SDS011;23562;50.540;12.504;2023-03-01T13:15:55;48.83;;;27.57;;
37715;SDS011;23562;50.540;12.504;2023-03-01T13:20:49;43.70;;;25.45;;
37715;SDS011;23562;50.540;12.504;2023-03-01T13:31:06;40.80;;;24.35;;
37715;SDS011;23562;50.540;12.504;2023-03-01T13:36:01;44.15;;;23.88;;
37715;SDS011;23562;50.540;12.504;2023-03-01T13:38:46;50.37;;;25.90;;
37715;SDS011;23562;50.540;12.504;2023-03-01T13:41:13;45.95;;;24.42;;
37715;SDS011;23562;50.540;12.504;2023-03-01T13:43:39;43.70;;;24.30;;
37715;SDS011;23562;50.540;12.504;2023-03-01T13:46:16;43.03;;;25.08;;
37715;SDS011;23562;50.540;12.504;2023-03-01T13:48:42;50.92;;;28.05;;
37715;SDS011;23562;50.540;12.504;2023-03-01T13:51:09;48.20;;;25.75;;
37715;SDS011;23562;50.540;12.504;2023-03-01T13:53:36;64.03;;;30.75;;
37715;SDS011;23562;50.540;12.504;2023-03-01T13:56:03;64.47;;;30.67;;
37715;SDS011;23562;50.540;12.504;2023-03-01T13:58:32;60.10;;;29.58;;
37715;SDS011;23562;50.540;12.504;2023-03-01T14:01:06;52.55;;;28.35;;
37715;SDS011;23562;50.540;12.504;2023-03-01T14:03:40;45.78;;;25.80;;
37715;SDS011;23562;50.540;12.504;2023-03-01T14:06:07;45.65;;;25.38;;
37715;SDS011;23562;50.540;12.504;2023-03-01T14:08:33;47.63;;;25.88;;
37715;SDS011;23562;50.540;12.504;2023-03-01T14:13:47;48.20;;;26.58;;
37715;SDS011;23562;50.540;12.504;2023-03-01T14:19:02;45.67;;;26.05;;
37715;SDS011;23562;50.540;12.504;2023-03-01T14:21:30;50.60;;;27.35;;
37715;SDS011;23562;50.540;12.504;2023-03-01T14:23:56;59.58;;;31.10;;
37715;SDS011;23562;50.540;12.504;2023-03-01T14:26:22;60.42;;;30.02;;
37715;SDS011;23562;50.540;12.504;2023-03-01T14:28:47;50.97;;;28.20;;
37715;SDS011;23562;50.540;12.504;2023-03-01T14:33:57;48.13;;;27.27;;
37715;SDS011;23562;50.540;12.504;2023-03-01T14:36:26;48.95;;;27.73;;
37715;SDS011;23562;50.540;12.504;2023-03-01T14:38:52;51.72;;;25.83;;
37715;SDS011;23562;50.540;12.504;2023-03-01T14:41:18;48.53;;;25.90;;
37715;SDS011;23562;50.540;12.504;2023-03-01T14:43:45;51.80;;;28.42;;
37715;SDS011;23562;50.540;12.504;2023-03-01T14:46:19;51.67;;;26.45;;
37715;SDS011;23562;50.540;12.504;2023-03-01T14:48:47;47.00;;;26.85;;
37715;SDS011;23562;50.540;12.504;2023-03-01T14:51:13;50.95;;;27.95;;
37715;SDS011;23562;50.540;12.504;2023-03-01T14:53:38;55.33;;;30.55;;
37715;SDS011;23562;50.540;12.504;2023-03-01T14:56:03;54.10;;;28.30;;
37715;SDS011;23562;50.540;12.504;2023-03-01T14:58:28;54.45;;;28.55;;
37715;SDS011;23562;50.540;12.504;2023-03-01T15:01:00;51.38;;;28.42;;
37715;SDS011;23562;50.540;12.504;2023-03-01T15:03:28;59.35;;;30.52;;
37715;SDS011;23562;50.540;12.504;2023-03-01T15:05:55;52.17;;;28.42;;
37715;SDS011;23562;50.540;12.504;2023-03-01T15:08:21;54.03;;;29.23;;
37715;SDS011;23562;50.540;12.504;2023-03-01T15:10:58;55.33;;;28.13;;
37715;SDS011;23562;50.540;12.504;2023-03-01T15:13:24;53.47;;;27.65;;
37715;SDS011;23562;50.540;12.504;2023-03-01T15:15:50;50.83;;;27.38;;
37715;SDS011;23562;50.540;12.504;2023-03-01T15:18:17;51.30;;;27.88;;
37715;SDS011;23562;50.540;12.504;2023-03-01T15:20:43;52.35;;;27.63;;
37715;SDS011;23562;50.540;12.504;2023-03-01T15:23:22;92.55;;;41.45;;
37715;SDS011;23562;50.540;12.504;2023-03-01T15:25:48;150.27;;;52.03;;
37715;SDS011;23562;50.540;12.504;2023-03-01T15:28:21;99.38;;;48.05;;
37715;SDS011;23562;50.540;12.504;2023-03-01T15:30:51;101.90;;;47.40;;
37715;SDS011;23562;50.540;12.504;2023-03-01T15:35:44;155.50;;;65.00;;
37715;SDS011;23562;50.540;12.504;2023-03-01T15:38:32;144.50;;;66.90;;
37715;SDS011;23562;50.540;12.504;2023-03-01T15:40:59;118.43;;;54.92;;
37715;SDS011;23562;50.540;12.504;2023-03-01T15:43:41;113.70;;;52.72;;
37715;SDS011;23562;50.540;12.504;2023-03-01T15:46:17;93.90;;;45.10;;
37715;SDS011;23562;50.540;12.504;2023-03-01T15:48:46;72.03;;;36.65;;
37715;SDS011;23562;50.540;12.504;2023-03-01T15:51:14;81.00;;;39.97;;
37715;SDS011;23562;50.540;12.504;2023-03-01T15:53:39;116.45;;;53.45;;
37715;SDS011;23562;50.540;12.504;2023-03-01T15:56:05;214.33;;;67.37;;
37715;SDS011;23562;50.540;12.504;2023-03-01T15:58:32;230.65;;;63.78;;
37715;SDS011;23562;50.540;12.504;2023-03-01T16:00:57;148.43;;;67.78;;
37715;SDS011;23562;50.540;12.504;2023-03-01T16:03:23;99.90;;;49.67;;
37715;SDS011;23562;50.540;12.504;2023-03-01T16:05:49;118.63;;;56.95;;
37715;SDS011;23562;50.540;12.504;2023-03-01T16:08:14;90.45;;;46.00;;
37715;SDS011;23562;50.540;12.504;2023-03-01T16:10:40;62.55;;;32.58;;
37715;SDS011;23562;50.540;12.504;2023-03-01T16:13:08;56.20;;;31.17;;
37715;SDS011;23562;50.540;12.504;2023-03-01T16:15:33;55.13;;;30.90;;
37715;SDS011;23562;50.540;12.504;2023-03-01T16:18:03;63.05;;;32.33;;
37715;SDS011;23562;50.540;12.504;2023-03-01T16:20:28;63.65;;;32.55;;
37715;SDS011;23562;50.540;12.504;2023-03-01T16:25:53;53.58;;;29.20;;
37715;SDS011;23562;50.540;12.504;2023-03-01T16:28:19;52.67;;;28.20;;
37715;SDS011;23562;50.540;12.504;2023-03-01T16:30:46;51.92;;;28.23;;
37715;SDS011;23562;50.540;12.504;2023-03-01T16:33:13;52.70;;;27.77;;
37715;SDS011;23562;50.540;12.504;2023-03-01T16:38:35;50.67;;;27.33;;
37715;SDS011;23562;50.540;12.504;2023-03-01T16:41:00;50.20;;;27.92;;
37715;SDS011;23562;50.540;12.504;2023-03-01T16:43:26;50.10;;;28.10;;
37715;SDS011;23562;50.540;12.504;2023-03-01T16:45:51;51.60;;;26.90;;
37715;SDS011;23562;50.540;12.504;2023-03-01T16:50:58;53.17;;;27.98;;
37715;SDS011;23562;50.540;12.504;2023-03-01T16:53:28;52.72;;;28.02;;
37715;SDS011;23562;50.540;12.504;2023-03-01T16:55:58;60.33;;;29.33;;
37715;SDS011;23562;50.540;12.504;2023-03-01T16:58:24;57.95;;;30.25;;
37715;SDS011;23562;50.540;12.504;2023-03-01T17:01:03;57.55;;;31.85;;
37715;SDS011;23562;50.540;12.504;2023-03-01T17:03:41;62.97;;;33.97;;
37715;SDS011;23562;50.540;12.504;2023-03-01T17:06:10;60.08;;;31.90;;
37715;SDS011;23562;50.540;12.504;2023-03-01T17:08:54;59.55;;;32.08;;
37715;SDS011;23562;50.540;12.504;2023-03-01T17:11:20;66.15;;;33.65;;
37715;SDS011;23562;50.540;12.504;2023-03-01T17:13:45;59.50;;;30.98;;
37715;SDS011;23562;50.540;12.504;2023-03-01T17:16:12;59.17;;;29.17;;
37715;SDS011;23562;50.540;12.504;2023-03-01T17:18:37;55.55;;;29.25;;
37715;SDS011;23562;50.540;12.504;2023-03-01T17:21:03;53.83;;;29.30;;
37715;SDS011;23562;50.540;12.504;2023-03-01T17:23:38;52.28;;;27.95;;
37715;SDS011;23562;50.540;12.504;2023-03-01T17:26:04;52.15;;;28.17;;
37715;SDS011;23562;50.540;12.504;2023-03-01T17:28:30;53.53;;;28.30;;
37715;SDS011;23562;50.540;12.504;2023-03-01T17:31:02;59.08;;;28.88;;
37715;SDS011;23562;50.540;12.504;2023-03-01T17:33:30;57.20;;;28.35;;
37715;SDS011;23562;50.540;12.504;2023-03-01T17:35:56;108.25;;;47.40;;
37715;SDS011;23562;50.540;12.504;2023-03-01T17:38:21;101.80;;;44.88;;
37715;SDS011;23562;50.540;12.504;2023-03-01T17:40:47;67.45;;;33.92;;